Time;durP1;ratioP1;P1;durP2;ratioP2;P2;SDS_P1;SDS_P2;PMS_P1;PMS_P2;Temp;Humidity;BMP_temperature;BMP_pressure;BME280_temperature;BME280_humidity;BME280_pressure;Samples;Min_cycle;Max_cycle;Signal;HPM_P1;HPM_P2
2021/03/12 00:00:24;;;;;;;8.87;3.60;;;;;;;9.29;60.47;98769.88;5053124;28;20519;-73
2021/03/12 00:02:50;;;;;;;20.70;4.63;;;;;;;8.97;60.71;98782.19;5055965;28;20487;-74
2021/03/12 00:05:17;;;;;;;9.73;3.47;;;;;;;9.14;60.66;98767.03;5057051;28;20469;-73
2021/03/12 00:07:43;;;;;;;14.47;4.13;;;;;;;9.14;60.57;98767.03;5055598;28;20480;-74
2021/03/12 00:10:11;;;;;;;12.23;3.90;;;;;;;9.16;60.83;98781.03;5058258;28;20452;-74
2021/03/12 00:12:37;;;;;;;13.73;4.30;;;;;;;9.38;60.01;98782.19;5057675;28;20508;-74
2021/03/12 00:15:06;;;;;;;7.60;3.53;;;;;;;9.07;61.16;98783.88;5055802;28;20461;-74
2021/03/12 00:17:33;;;;;;;9.73;3.43;;;;;;;8.78;61.43;98785.19;5055447;28;20472;-75
2021/03/12 00:20:00;;;;;;;10.27;3.80;;;;;;;9.08;60.74;98786.38;5056042;28;20456;-74
2021/03/12 00:22:26;;;;;;;11.10;4.10;;;;;;;8.90;61.50;98778.53;5058328;28;21062;-74
2021/03/12 00:24:52;;;;;;;11.67;4.30;;;;;;;9.02;61.42;98776.38;5059929;28;20452;-74
2021/03/12 00:27:19;;;;;;;7.70;4.00;;;;;;;8.85;61.72;98776.38;5058346;28;21027;-74
2021/03/12 00:29:45;;;;;;;9.73;4.00;;;;;;;8.88;61.53;98791.19;5055205;28;20464;-74
2021/03/12 00:32:11;;;;;;;7.30;3.87;;;;;;;9.13;61.00;98796.53;5053285;28;20481;-74
2021/03/12 00:34:38;;;;;;;12.00;3.80;;;;;;;9.25;60.51;98787.19;5063829;28;20836;-73
2021/03/12 00:37:05;;;;;;;12.13;5.00;;;;;;;8.97;61.63;98798.19;5059571;28;20535;-74
2021/03/12 00:39:31;;;;;;;5.67;3.67;;;;;;;9.05;61.21;98808.84;5042782;28;20847;-74
2021/03/12 00:41:57;;;;;;;10.07;4.63;;;;;;;8.97;61.68;98806.19;5060733;28;20460;-73
2021/03/12 00:44:25;;;;;;;6.93;3.30;;;;;;;9.35;60.35;98814.50;5063898;28;20463;-73
2021/03/12 00:46:52;;;;;;;9.00;3.57;;;;;;;9.22;61.31;98823.03;5063581;28;20468;-73
2021/03/12 00:49:18;;;;;;;7.30;3.33;;;;;;;9.17;61.05;98817.38;5063379;28;20465;-73
2021/03/12 00:51:45;;;;;;;11.17;3.23;;;;;;;9.00;61.59;98824.53;5049456;28;20517;-75
2021/03/12 00:54:12;;;;;;;10.90;4.10;;;;;;;9.15;61.77;98810.50;5043871;28;20507;-74
2021/03/12 00:56:38;;;;;;;9.07;3.77;;;;;;;8.96;62.25;98809.88;5057271;28;20477;-75
2021/03/12 00:59:04;;;;;;;11.17;3.90;;;;;;;8.73;62.54;98804.34;5050924;28;20484;-75
2021/03/12 01:01:31;;;;;;;9.07;3.43;;;;;;;8.72;62.99;98823.16;5055348;28;20480;-75
2021/03/12 01:03:57;;;;;;;11.73;4.37;;;;;;;9.18;61.72;98826.19;5055638;28;20460;-75
2021/03/12 01:06:23;;;;;;;16.83;3.80;;;;;;;8.71;62.47;98827.63;5054499;28;20485;-75
2021/03/12 01:08:50;;;;;;;12.63;3.67;;;;;;;9.03;62.34;98842.03;5063403;28;20444;-75
2021/03/12 01:11:17;;;;;;;9.37;3.20;;;;;;;8.66;63.39;98840.63;5062542;28;20468;-76
2021/03/12 01:13:43;;;;;;;9.27;3.70;;;;;;;8.59;64.62;98858.25;5063204;28;20502;-76
2021/03/12 01:16:09;;;;;;;6.40;3.57;;;;;;;8.39;66.83;98887.78;5062436;28;20465;-76
2021/03/12 01:18:35;;;;;;;6.30;3.27;;;;;;;7.62;69.20;98916.09;5063709;28;20449;-76
2021/03/12 01:21:02;;;;;;;4.07;1.60;;;;;;;6.45;71.84;98935.53;5055091;28;20480;-77
2021/03/12 01:23:28;;;;;;;4.73;2.23;;;;;;;6.77;71.69;98913.81;5062827;28;20524;-75
2021/03/12 01:25:55;;;;;;;3.53;2.17;;;;;;;7.10;71.13;98914.16;5062259;28;20465;-76
2021/03/12 01:28:21;;;;;;;5.17;2.00;;;;;;;6.76;71.03;98902.34;5062958;28;20421;-76
2021/03/12 01:30:49;;;;;;;3.40;1.70;;;;;;;6.89;71.13;98906.47;5062510;28;20480;-76
2021/03/12 01:33:16;;;;;;;3.53;1.80;;;;;;;6.89;70.47;98922.41;5062743;28;21013;-75
2021/03/12 01:35:42;;;;;;;2.77;1.70;;;;;;;6.81;70.39;98927.66;5062049;28;20906;-75
2021/03/12 01:38:09;;;;;;;3.50;2.47;;;;;;;6.71;71.03;98928.53;5063285;28;21158;-76
2021/03/12 01:40:37;;;;;;;5.33;1.87;;;;;;;6.54;71.13;98926.66;5050158;28;21002;-75
2021/03/12 01:43:04;;;;;;;4.63;1.90;;;;;;;6.69;70.85;98922.53;5062853;28;20456;-76
2021/03/12 01:45:35;;;;;;;3.70;2.63;;;;;;;6.52;71.58;98918.84;5062456;28;20491;-75
2021/03/12 01:48:01;;;;;;;5.57;2.10;;;;;;;6.71;71.07;98923.22;5062697;28;20441;-75
2021/03/12 01:50:28;;;;;;;6.57;2.73;;;;;;;7.00;70.29;98918.72;5061875;28;20469;-76
2021/03/12 01:52:54;;;;;;;5.90;3.60;;;;;;;7.03;70.37;98927.22;5062339;28;20515;-76
2021/03/12 01:55:26;;;;;;;7.63;3.60;;;;;;;7.08;70.40;98919.66;5061136;28;20472;-76
2021/03/12 01:57:52;;;;;;;7.03;3.17;;;;;;;6.71;70.90;98928.53;5061926;28;20477;-75
2021/03/12 02:00:20;;;;;;;5.03;3.10;;;;;;;6.92;70.87;98936.22;5061560;28;20444;-75
2021/03/12 02:02:46;;;;;;;6.90;4.10;;;;;;;7.28;69.47;98932.78;5062635;28;21013;-74
2021/03/12 02:05:14;;;;;;;9.10;3.83;;;;;;;7.38;69.35;98940.66;5045973;28;20478;-74
2021/03/12 02:07:40;;;;;;;5.30;3.53;;;;;;;7.31;70.50;98943.13;5062784;28;20444;-74
2021/03/12 02:10:09;;;;;;;8.03;4.13;;;;;;;7.29;70.11;98940.63;5061063;28;20901;-75
2021/03/12 02:12:39;;;;;;;8.93;5.00;;;;;;;7.45;69.65;98939.09;5053865;28;20475;-74
2021/03/12 02:15:09;;;;;;;9.80;5.00;;;;;;;7.45;69.71;98942.56;5061181;28;20510;-75
2021/03/12 02:17:42;;;;;;;13.07;5.47;;;;;;;7.38;69.91;98952.16;5062069;28;20913;-76
2021/03/12 02:20:31;;;;;;;8.83;5.20;;;;;;;7.42;70.08;98950.84;5061646;28;20460;-75
2021/03/12 02:23:07;;;;;;;9.87;5.33;;;;;;;7.60;69.21;98950.00;5051474;28;20465;-75
2021/03/12 02:25:33;;;;;;;7.67;3.97;;;;;;;7.52;69.15;98948.94;5059092;28;20510;-75
2021/03/12 02:28:00;;;;;;;11.83;5.23;;;;;;;7.64;69.36;98949.56;5059278;28;20460;-75
2021/03/12 02:30:27;;;;;;;9.03;4.80;;;;;;;7.73;68.14;98940.63;5061583;28;20479;-75
2021/03/12 02:32:54;;;;;;;10.13;5.50;;;;;;;7.76;68.68;98941.31;5060856;28;20866;-75
2021/03/12 02:35:21;;;;;;;8.60;4.83;;;;;;;7.57;69.05;98956.47;5053999;28;20468;-75
2021/03/12 02:37:49;;;;;;;8.20;4.43;;;;;;;7.69;68.56;98957.06;5052823;28;20472;-74
2021/03/12 02:40:15;;;;;;;15.27;6.57;;;;;;;7.79;67.95;98960.47;5060342;28;20453;-75
2021/03/12 02:42:42;;;;;;;8.67;5.30;;;;;;;7.74;68.65;98960.09;5057780;28;20465;-74
2021/03/12 02:45:11;;;;;;;18.40;6.40;;;;;;;7.65;68.38;98961.84;5060863;28;20574;-75
2021/03/12 02:47:38;;;;;;;11.37;5.60;;;;;;;7.38;69.24;98957.47;5061454;28;20453;-74
2021/03/12 02:50:06;;;;;;;10.07;5.20;;;;;;;7.56;68.70;98967.28;5060885;28;20425;-75
2021/03/12 02:52:32;;;;;;;10.10;5.70;;;;;;;7.50;69.42;98961.56;5061710;28;20516;-74
2021/03/12 02:54:59;;;;;;;12.17;5.33;;;;;;;7.66;69.24;98970.69;5058042;28;20453;-74
2021/03/12 02:57:25;;;;;;;9.63;6.30;;;;;;;7.84;69.33;98974.13;5059867;28;20492;-74
2021/03/12 02:59:53;;;;;;;14.93;5.67;;;;;;;7.65;68.86;98974.31;5061730;28;20433;-74
2021/03/12 03:02:23;;;;;;;9.57;5.73;;;;;;;7.68;68.97;98982.00;5060622;28;20527;-74
2021/03/12 03:04:50;;;;;;;13.10;6.50;;;;;;;7.67;69.38;98980.31;5061596;28;20453;-74
2021/03/12 03:07:17;;;;;;;10.70;5.07;;;;;;;7.20;70.21;98976.06;5058816;28;20477;-76
2021/03/12 03:09:44;;;;;;;11.13;6.70;;;;;;;7.63;69.19;98970.97;5058227;28;20484;-75
2021/03/12 03:12:15;;;;;;;8.97;6.10;;;;;;;7.34;69.49;98988.84;5058352;28;20491;-75
2021/03/12 03:14:41;;;;;;;14.90;5.60;;;;;;;7.60;69.16;98996.03;5058573;28;20450;-74
2021/03/12 03:17:10;;;;;;;23.57;8.70;;;;;;;7.91;68.18;98995.66;5039687;28;20482;-75
2021/03/12 03:19:40;;;;;;;13.53;8.13;;;;;;;7.50;69.18;98997.97;5034555;28;20453;-74
2021/03/12 03:22:07;;;;;;;7.87;5.20;;;;;;;7.30;69.35;99016.69;5049339;28;20547;-76
2021/03/12 03:24:33;;;;;;;13.70;5.50;;;;;;;7.46;68.92;99013.38;5057244;28;20460;-75
2021/03/12 03:26:59;;;;;;;9.33;5.10;;;;;;;7.40;69.93;99021.97;5054553;28;20501;-75
2021/03/12 03:29:25;;;;;;;14.03;6.40;;;;;;;7.68;69.39;99021.91;5045921;28;20438;-75
2021/03/12 03:31:52;;;;;;;6.27;4.80;;;;;;;7.13;70.36;99007.75;5051606;28;20481;-76
2021/03/12 03:34:18;;;;;;;6.30;3.80;;;;;;;7.23;69.79;99012.97;5051844;28;20456;-75
2021/03/12 03:36:45;;;;;;;6.67;4.80;;;;;;;7.26;69.79;99020.66;5036647;28;20485;-76
2021/03/12 03:39:12;;;;;;;4.63;3.90;;;;;;;7.00;70.37;99012.56;5035323;28;21353;-76
2021/03/12 03:41:40;;;;;;;12.53;4.50;;;;;;;6.92;70.47;99039.03;5044849;28;20481;-76
2021/03/12 03:44:07;;;;;;;6.60;3.93;;;;;;;6.94;70.08;99021.97;5049288;28;20490;-76
2021/03/12 03:46:36;;;;;;;5.10;2.70;;;;;;;6.83;70.91;99031.94;5052983;28;20483;-77
2021/03/12 03:49:02;;;;;;;7.40;3.50;;;;;;;7.01;70.34;99050.59;5054907;28;20485;-75
2021/03/12 03:51:29;;;;;;;6.03;3.20;;;;;;;6.86;70.72;99053.75;5055532;28;20473;-76
2021/03/12 03:53:56;;;;;;;9.50;3.10;;;;;;;6.99;70.23;99056.03;5046483;28;20606;-75
2021/03/12 03:56:23;;;;;;;8.57;3.50;;;;;;;7.05;69.97;99058.13;5052599;28;20477;-75
2021/03/12 03:58:49;;;;;;;6.13;4.97;;;;;;;7.16;69.65;99052.59;5038599;28;20486;-75
2021/03/12 04:01:17;;;;;;;8.10;4.70;;;;;;;7.19;69.48;99067.44;5043735;28;20480;-75
2021/03/12 04:03:44;;;;;;;12.13;4.90;;;;;;;7.23;69.66;99052.84;5060671;28;20453;-75
2021/03/12 04:06:11;;;;;;;8.37;5.50;;;;;;;7.07;70.97;99065.97;5054937;28;20511;-75
2021/03/12 04:08:37;;;;;;;7.97;5.53;;;;;;;7.08;70.68;99063.16;5055512;28;20457;-76
2021/03/12 04:11:05;;;;;;;10.83;5.53;;;;;;;7.25;69.98;99063.34;5056054;28;20485;-75
2021/03/12 04:13:31;;;;;;;10.67;5.80;;;;;;;7.10;69.93;99070.97;5060726;28;20524;-75
2021/03/12 04:15:58;;;;;;;10.70;6.13;;;;;;;7.01;70.72;99079.81;5059843;28;20473;-76
2021/03/12 04:18:25;;;;;;;11.93;5.80;;;;;;;7.36;69.69;99081.75;5060614;28;20460;-74
2021/03/12 04:20:51;;;;;;;15.73;6.60;;;;;;;7.44;69.52;99081.84;5056410;28;20987;-74
2021/03/12 04:23:18;;;;;;;9.57;6.30;;;;;;;7.60;69.03;99083.00;5060582;28;20433;-74
2021/03/12 04:25:45;;;;;;;10.13;6.00;;;;;;;7.29;69.99;99083.31;5059705;28;20477;-75
2021/03/12 04:28:13;;;;;;;14.03;6.70;;;;;;;7.52;68.88;99087.25;5026639;28;20466;-75
2021/03/12 04:30:43;;;;;;;14.07;6.30;;;;;;;7.41;69.19;99098.06;5047305;28;20485;-75
2021/03/12 04:33:09;;;;;;;11.00;5.90;;;;;;;7.50;69.11;99105.19;5060339;28;20498;-75
2021/03/12 04:35:36;;;;;;;13.77;6.33;;;;;;;7.67;68.53;99102.69;5059920;28;20477;-76
2021/03/12 04:38:03;;;;;;;12.03;6.10;;;;;;;7.18;69.36;99115.44;5062370;28;20433;-75
2021/03/12 04:40:29;;;;;;;13.73;6.70;;;;;;;7.54;68.87;99132.31;5063274;28;20453;-74
2021/03/12 04:42:55;;;;;;;15.80;5.13;;;;;;;7.53;68.48;99125.31;5064361;28;20437;-75
2021/03/12 04:45:23;;;;;;;18.97;6.67;;;;;;;7.32;68.18;99123.72;5063179;28;20670;-76
2021/03/12 04:47:50;;;;;;;10.50;6.17;;;;;;;7.47;67.73;99126.75;5063654;28;20456;-75
2021/03/12 04:50:16;;;;;;;8.23;5.63;;;;;;;7.47;67.27;99124.09;5046562;28;20445;-74
2021/03/12 04:52:42;;;;;;;11.33;6.10;;;;;;;7.70;66.92;99143.13;5063708;28;20492;-75
2021/03/12 04:55:10;;;;;;;10.60;5.60;;;;;;;7.76;67.09;99147.03;5062460;28;20480;-75
2021/03/12 04:57:37;;;;;;;10.60;6.27;;;;;;;7.54;67.95;99151.75;5051100;28;20445;-75
2021/03/12 05:00:05;;;;;;;9.03;5.63;;;;;;;7.38;67.94;99158.69;5059238;28;20445;-75
2021/03/12 05:02:33;;;;;;;8.30;5.63;;;;;;;7.35;68.49;99152.69;5044047;28;20455;-76
2021/03/12 05:04:59;;;;;;;11.97;5.10;;;;;;;7.78;67.59;99158.34;5043237;28;20454;-75
2021/03/12 05:07:28;;;;;;;12.83;4.87;;;;;;;7.64;68.21;99150.88;5043522;28;20490;-75
2021/03/12 05:09:54;;;;;;;8.50;5.70;;;;;;;7.52;68.75;99161.72;5042309;28;20479;-75
2021/03/12 05:12:20;;;;;;;13.10;5.60;;;;;;;7.37;68.34;99163.19;5035820;28;20517;-75
2021/03/12 05:14:46;;;;;;;10.13;5.60;;;;;;;7.26;68.07;99177.50;5033946;28;20469;-75
2021/03/12 05:17:27;;;;;;;11.87;5.30;;;;;;;7.30;67.31;99178.88;5042007;28;20485;-75
2021/03/12 05:19:54;;;;;;;10.27;5.53;;;;;;;7.55;67.21;99184.50;4980302;28;20457;-75
2021/03/12 05:22:21;;;;;;;7.10;5.10;;;;;;;7.32;67.22;99182.22;4983540;28;20551;-75
2021/03/12 05:24:47;;;;;;;11.70;5.33;;;;;;;7.24;67.04;99207.88;4986403;28;20480;-76
2021/03/12 05:27:13;;;;;;;8.17;4.90;;;;;;;6.92;67.07;99188.66;4987158;28;20472;-75
2021/03/12 05:29:40;;;;;;;8.87;4.30;;;;;;;6.89;67.47;99193.41;4999120;28;20428;-75
2021/03/12 05:32:06;;;;;;;6.90;3.13;;;;;;;7.00;66.86;99193.25;5000148;28;20494;-74
2021/03/12 05:34:32;;;;;;;5.37;3.03;;;;;;;6.90;66.76;99198.59;4999792;28;20464;-74
2021/03/12 05:36:59;;;;;;;8.60;3.23;;;;;;;7.12;66.25;99204.56;4998245;28;20494;-75
2021/03/12 05:39:26;;;;;;;11.57;3.83;;;;;;;6.88;67.89;99208.53;4999139;28;20451;-76
2021/03/12 05:41:52;;;;;;;4.10;3.00;;;;;;;6.95;66.97;99217.59;4999762;28;20480;-75
2021/03/12 05:44:18;;;;;;;7.20;2.30;;;;;;;7.29;65.84;99219.75;4999240;28;20485;-75
2021/03/12 05:46:45;;;;;;;9.30;3.43;;;;;;;6.94;66.69;99225.72;4998882;28;20498;-76
2021/03/12 05:49:13;;;;;;;6.53;2.53;;;;;;;7.07;66.74;99220.94;4997803;28;20467;-75
2021/03/12 05:51:40;;;;;;;4.40;3.43;;;;;;;6.89;67.54;99233.25;4997346;28;20553;-76
2021/03/12 05:54:07;;;;;;;10.80;4.10;;;;;;;7.14;66.89;99226.50;4999726;28;20560;-75
2021/03/12 05:56:34;;;;;;;7.37;3.67;;;;;;;6.67;68.55;99223.81;5006765;28;20495;-75
2021/03/12 05:59:02;;;;;;;8.67;4.50;;;;;;;7.03;67.59;99232.84;5060221;28;20492;-75
2021/03/12 06:01:30;;;;;;;10.50;5.37;;;;;;;7.15;67.65;99239.66;5058822;28;20477;-75
2021/03/12 06:03:56;;;;;;;9.60;6.03;;;;;;;7.12;68.01;99244.44;5049440;28;20551;-75
2021/03/12 06:06:24;;;;;;;7.53;5.83;;;;;;;7.22;67.74;99239.94;5050922;28;20508;-76
2021/03/12 06:08:50;;;;;;;8.47;6.20;;;;;;;6.94;68.44;99245.16;5041838;28;20461;-75
2021/03/12 06:11:17;;;;;;;12.17;7.20;;;;;;;7.32;67.38;99248.69;5060288;28;20481;-75
2021/03/12 06:13:50;;;;;;;10.93;6.07;;;;;;;7.24;67.74;99253.06;5060710;28;20498;-75
2021/03/12 06:16:24;;;;;;;11.57;5.63;;;;;;;7.24;67.49;99256.56;5060650;28;20473;-74
2021/03/12 06:19:13;;;;;;;13.20;5.97;;;;;;;7.39;67.36;99253.44;5061626;28;20449;-73
2021/03/12 06:21:40;;;;;;;7.30;6.10;;;;;;;7.69;66.05;99255.00;5060536;28;20476;-75
2021/03/12 06:24:24;;;;;;;9.13;5.20;;;;;;;7.07;67.59;99258.13;5060269;28;20960;-76
2021/03/12 06:26:51;;;;;;;11.87;6.03;;;;;;;7.14;66.73;99258.41;5060578;28;20552;-76
2021/03/12 06:29:17;;;;;;;13.40;6.33;;;;;;;7.62;65.89;99268.06;5060395;28;20433;-75
2021/03/12 06:31:51;;;;;;;12.27;6.33;;;;;;;7.82;64.41;99279.47;5060895;28;20480;-74
2021/03/12 06:34:17;;;;;;;11.03;5.23;;;;;;;8.74;62.82;99274.16;5060611;28;20481;-75
2021/03/12 06:36:47;;;;;;;10.37;6.30;;;;;;;8.82;61.45;99282.25;5052636;28;20585;-75
2021/03/12 06:39:13;;;;;;;12.43;6.90;;;;;;;8.17;63.20;99283.19;5055760;28;20583;-75
2021/03/12 06:41:43;;;;;;;11.17;5.87;;;;;;;7.78;64.26;99275.44;5056385;28;20468;-75
2021/03/12 06:44:37;;;;;;;15.77;5.17;;;;;;;7.24;65.64;99276.97;5059187;28;20472;-76
2021/03/12 06:47:04;;;;;;;12.90;6.20;;;;;;;7.38;64.70;99281.00;5017620;28;20478;-75
2021/03/12 06:49:33;;;;;;;10.63;6.10;;;;;;;7.67;64.66;99284.44;5017865;28;20455;-75
2021/03/12 06:52:01;;;;;;;10.30;6.27;;;;;;;7.96;63.60;99285.28;5010945;28;20541;-76
2021/03/12 06:54:29;;;;;;;10.83;6.90;;;;;;;7.86;63.27;99280.88;5002972;28;20559;-76
2021/03/12 06:56:56;;;;;;;10.37;6.57;;;;;;;8.23;61.90;99287.94;5017739;28;20908;-76
2021/03/12 06:59:26;;;;;;;15.37;5.47;;;;;;;8.34;61.79;99297.53;5016692;28;20482;-76
2021/03/12 07:02:01;;;;;;;10.53;6.60;;;;;;;8.08;61.76;99294.75;5017526;28;20880;-76
2021/03/12 07:04:28;;;;;;;14.20;6.53;;;;;;;8.66;59.82;99288.22;5018577;28;20450;-77
2021/03/12 07:06:55;;;;;;;11.03;5.10;;;;;;;9.63;56.88;99293.66;5017167;28;20474;-75
2021/03/12 07:09:23;;;;;;;9.30;4.27;;;;;;;11.30;52.14;99291.06;5017738;28;20910;-76
2021/03/12 07:11:53;;;;;;;8.97;4.00;;;;;;;11.29;50.31;99298.25;5010754;28;20506;-76
2021/03/12 07:14:20;;;;;;;14.63;4.53;;;;;;;10.81;52.13;99301.75;5001901;28;20488;-75
2021/03/12 07:16:46;;;;;;;7.50;4.33;;;;;;;11.59;50.07;99303.06;5008009;28;20479;-76
2021/03/12 07:19:17;;;;;;;7.23;4.33;;;;;;;12.58;48.02;99307.03;5013046;28;20439;-76
2021/03/12 07:21:47;;;;;;;9.43;4.20;;;;;;;13.12;46.39;99311.56;5026852;28;20497;-77
2021/03/12 07:24:15;;;;;;;7.83;3.67;;;;;;;14.20;44.44;99305.94;5059139;28;20971;-76
2021/03/12 07:26:45;;;;;;;11.67;3.83;;;;;;;13.32;46.06;99314.59;5058337;28;20843;-76
2021/03/12 07:29:12;;;;;;;11.50;5.13;;;;;;;11.31;49.36;99314.97;5058752;28;20530;-76
2021/03/12 07:31:39;;;;;;;9.57;4.30;;;;;;;9.70;54.70;99319.53;5059031;28;20492;-78
2021/03/12 07:34:07;;;;;;;9.97;4.50;;;;;;;9.24;56.62;99305.56;5048223;28;20523;-74
2021/03/12 07:36:34;;;;;;;11.20;4.40;;;;;;;10.07;53.51;99315.75;5043432;28;21424;-74
2021/03/12 07:39:03;;;;;;;9.80;4.97;;;;;;;10.08;54.01;99316.56;5056953;28;20457;-73
2021/03/12 07:41:30;;;;;;;11.70;5.60;;;;;;;9.52;54.64;99326.78;5043646;28;20492;-74
2021/03/12 07:43:56;;;;;;;14.10;5.70;;;;;;;9.92;53.83;99331.50;5023965;28;20457;-73
2021/03/12 07:46:25;;;;;;;7.60;5.10;;;;;;;9.42;55.31;99326.88;5056426;28;20476;-74
2021/03/12 07:48:51;;;;;;;8.60;5.10;;;;;;;9.06;56.16;99316.25;5055832;28;20526;-74
2021/03/12 07:51:17;;;;;;;9.10;5.97;;;;;;;9.54;54.32;99324.78;5055910;28;20539;-74
2021/03/12 07:53:46;;;;;;;11.60;5.80;;;;;;;9.79;54.00;99309.75;5057014;28;20503;-74
2021/03/12 07:56:14;;;;;;;14.67;5.50;;;;;;;10.09;52.04;99320.91;5051222;28;20483;-75
2021/03/12 07:59:12;;;;;;;9.93;4.63;;;;;;;10.38;52.13;99325.91;5054833;28;20499;-75
2021/03/12 08:02:06;;;;;;;8.83;4.50;;;;;;;10.45;51.51;99320.72;5055379;28;20475;-75
2021/03/12 08:04:34;;;;;;;11.23;3.27;;;;;;;10.31;52.50;99325.72;4973407;28;20623;-75
2021/03/12 08:07:20;;;;;;;4.80;4.17;;;;;;;10.09;52.47;99326.25;4966389;28;20514;-75
2021/03/12 08:09:49;;;;;;;8.53;4.20;;;;;;;10.51;51.39;99302.22;4966115;28;20460;-75
2021/03/12 08:12:28;;;;;;;6.30;4.07;;;;;;;10.42;52.24;99321.91;4966832;28;20480;-74
2021/03/12 08:15:10;;;;;;;7.70;4.17;;;;;;;11.24;49.95;99318.50;4981593;28;20514;-75
2021/03/12 08:17:36;;;;;;;11.27;5.33;;;;;;;10.98;50.17;99322.16;4971941;28;20484;-75
2021/03/12 08:20:27;;;;;;;8.77;4.73;;;;;;;10.64;51.63;99312.44;4976774;28;20516;-76
2021/03/12 08:23:08;;;;;;;13.63;5.10;;;;;;;11.31;49.86;99314.97;4968817;28;20465;-74
2021/03/12 08:25:53;;;;;;;9.37;5.10;;;;;;;11.69;48.44;99317.94;4908055;29;20512;-74
2021/03/12 08:28:30;;;;;;;12.07;5.97;;;;;;;10.41;51.25;99312.19;4925130;29;20457;-77
2021/03/12 08:30:59;;;;;;;9.63;4.87;;;;;;;10.43;50.91;99312.03;4928043;29;20489;-75
2021/03/12 08:33:39;;;;;;;12.17;5.90;;;;;;;10.55;50.91;99318.75;4931796;29;20514;-77
2021/03/12 08:36:06;;;;;;;8.57;3.97;;;;;;;10.01;52.35;99320.88;4916465;29;20490;-75
2021/03/12 08:38:40;;;;;;;11.57;5.73;;;;;;;11.28;49.23;99322.50;4914864;29;20537;-74
2021/03/12 08:41:12;;;;;;;10.70;4.40;;;;;;;10.93;49.74;99319.97;4963903;28;21164;-75
2021/03/12 08:43:42;;;;;;;9.30;3.87;;;;;;;11.33;48.14;99320.16;5018025;28;20446;-75
2021/03/12 08:46:14;;;;;;;9.63;3.57;;;;;;;12.92;45.39;99323.78;5018866;28;20485;-75
2021/03/12 08:48:40;;;;;;;10.07;3.70;;;;;;;12.41;46.36;99322.41;5030805;28;21243;-76
2021/03/12 08:51:12;;;;;;;8.00;4.00;;;;;;;11.37;47.60;99312.63;5018545;28;20477;-76
2021/03/12 08:53:40;;;;;;;11.07;3.40;;;;;;;11.65;47.05;99313.09;5019623;28;20588;-75
2021/03/12 08:56:09;;;;;;;16.07;4.57;;;;;;;12.41;46.20;99305.47;5018002;28;20482;-75
2021/03/12 08:58:36;;;;;;;8.00;3.50;;;;;;;12.23;46.60;99305.72;5018693;28;20478;-75
2021/03/12 09:01:09;;;;;;;8.10;3.90;;;;;;;11.38;48.45;99308.97;5019009;28;20492;-75
2021/03/12 09:03:50;;;;;;;8.37;3.97;;;;;;;12.16;45.50;99302.09;5048724;28;20463;-75
2021/03/12 09:06:17;;;;;;;14.40;4.50;;;;;;;12.61;45.47;99306.69;5018257;28;20467;-74
2021/03/12 09:08:45;;;;;;;10.40;4.30;;;;;;;12.16;45.46;99299.41;5019070;28;20466;-74
2021/03/12 09:11:15;;;;;;;9.57;3.83;;;;;;;11.23;47.46;99293.59;5018408;28;20474;-75
2021/03/12 09:13:44;;;;;;;10.70;5.17;;;;;;;11.61;46.49;99306.41;5012236;28;20479;-76
2021/03/12 09:16:15;;;;;;;10.27;4.67;;;;;;;12.37;45.64;99304.16;5017969;28;20514;-74
2021/03/12 09:18:42;;;;;;;7.13;4.27;;;;;;;11.23;47.53;99296.28;5017786;28;20485;-75
2021/03/12 09:21:09;;;;;;;13.10;5.80;;;;;;;13.13;44.46;99294.41;5017661;28;20490;-75
2021/03/12 09:23:37;;;;;;;16.60;5.17;;;;;;;12.94;43.15;99282.34;5017955;28;20451;-76
2021/03/12 09:26:04;;;;;;;9.03;4.30;;;;;;;12.03;45.65;99291.91;5017503;28;20482;-75
2021/03/12 09:28:31;;;;;;;6.90;4.87;;;;;;;12.77;44.38;99303.06;5018454;28;20450;-73
2021/03/12 09:30:59;;;;;;;15.00;6.47;;;;;;;12.23;45.22;99298.53;5017661;28;20471;-75
2021/03/12 09:33:31;;;;;;;13.60;5.70;;;;;;;12.25;45.05;99290.31;5017138;28;20525;-74
2021/03/12 09:35:58;;;;;;;10.07;6.47;;;;;;;12.30;44.08;99300.53;5016568;28;21048;-76
2021/03/12 09:38:35;;;;;;;8.53;5.83;;;;;;;11.26;46.41;99281.69;5018095;28;20523;-74
2021/03/12 09:41:26;;;;;;;11.97;5.83;;;;;;;11.54;45.74;99287.50;5015202;28;20470;-76
2021/03/12 09:44:02;;;;;;;17.80;6.57;;;;;;;12.11;44.98;99307.97;4986284;28;20443;-76
2021/03/12 09:46:29;;;;;;;10.13;5.03;;;;;;;12.03;44.68;99289.22;5014571;28;20474;-77
2021/03/12 09:48:56;;;;;;;9.13;5.47;;;;;;;12.30;43.80;99271.03;5013607;28;20888;-75
2021/03/12 09:51:23;;;;;;;9.33;6.17;;;;;;;12.17;44.81;99293.03;5004361;28;20479;-76
2021/03/12 09:53:51;;;;;;;10.30;5.77;;;;;;;12.46;43.32;99291.56;5011697;28;20478;-75
2021/03/12 09:56:20;;;;;;;21.97;7.27;;;;;;;12.47;42.92;99295.91;5011219;28;20486;-74
2021/03/12 09:58:47;;;;;;;8.83;5.97;;;;;;;12.33;42.46;99290.28;5004442;28;20495;-75
2021/03/12 10:01:17;;;;;;;13.43;6.13;;;;;;;13.05;41.92;99291.78;5017210;28;20475;-75
2021/03/12 10:03:44;;;;;;;9.83;5.80;;;;;;;13.12;41.84;99294.59;5017306;28;20447;-75
2021/03/12 10:06:11;;;;;;;12.17;5.30;;;;;;;13.77;39.85;99298.56;5001889;28;20475;-76
2021/03/12 10:09:06;;;;;;;9.47;4.90;;;;;;;11.95;43.59;99300.81;5017593;28;20837;-75
2021/03/12 10:11:43;;;;;;;10.50;6.33;;;;;;;12.73;42.65;99298.25;5002931;28;20483;-74
2021/03/12 10:14:40;;;;;;;9.63;5.00;;;;;;;12.56;42.80;99297.53;5018631;28;20500;-74
2021/03/12 10:17:12;;;;;;;10.60;5.20;;;;;;;12.94;41.04;99302.97;4987349;28;20463;-75
2021/03/12 10:19:57;;;;;;;18.03;4.80;;;;;;;12.76;41.69;99285.31;4993613;28;20452;-73
2021/03/12 10:22:26;;;;;;;10.47;4.63;;;;;;;12.84;42.16;99287.09;5038980;28;20482;-74
2021/03/12 10:24:57;;;;;;;6.57;3.87;;;;;;;12.76;41.59;99288.00;5036797;28;20462;-75
2021/03/12 10:27:25;;;;;;;8.47;4.47;;;;;;;12.62;41.82;99280.75;5035927;28;20489;-75
2021/03/12 10:29:52;;;;;;;8.37;4.23;;;;;;;12.44;42.73;99287.19;5036930;28;20454;-75
2021/03/12 10:32:20;;;;;;;13.80;5.07;;;;;;;11.92;44.92;99284.25;5029707;28;20578;-74
2021/03/12 10:34:49;;;;;;;6.70;4.10;;;;;;;12.49;43.29;99288.53;5034840;28;20485;-74
2021/03/12 10:37:18;;;;;;;10.83;4.30;;;;;;;11.04;44.76;99289.41;5039511;28;20557;-77
2021/03/12 10:39:45;;;;;;;10.33;4.60;;;;;;;10.60;46.76;99275.50;5039182;28;20720;-75
2021/03/12 10:42:12;;;;;;;7.27;3.27;;;;;;;10.96;45.64;99289.41;5032221;28;20485;-76
2021/03/12 10:45:03;;;;;;;11.20;4.23;;;;;;;11.45;44.37;99265.28;5037058;28;20464;-75
2021/03/12 10:47:30;;;;;;;6.20;3.47;;;;;;;11.31;44.73;99264.13;4971153;28;20519;-75
2021/03/12 10:49:57;;;;;;;6.40;3.30;;;;;;;11.98;43.32;99271.03;4990411;28;20483;-77
2021/03/12 10:52:29;;;;;;;5.93;3.03;;;;;;;11.34;44.38;99257.63;5015709;28;20482;-75
2021/03/12 10:54:56;;;;;;;6.13;3.30;;;;;;;10.88;43.95;99262.66;5000707;28;20498;-75
2021/03/12 10:57:49;;;;;;;10.60;3.80;;;;;;;12.04;42.44;99253.41;5007022;28;21002;-75
2021/03/12 11:00:19;;;;;;;7.30;3.40;;;;;;;11.42;43.18;99254.94;4956425;28;20508;-75
2021/03/12 11:02:47;;;;;;;8.63;4.00;;;;;;;12.97;40.83;99239.06;4950182;28;20460;-75
2021/03/12 11:05:17;;;;;;;9.03;3.70;;;;;;;13.09;39.77;99252.88;4968611;28;20476;-75
2021/03/12 11:07:43;;;;;;;10.53;3.97;;;;;;;13.61;39.87;99255.75;4959199;28;20452;-75
2021/03/12 11:10:10;;;;;;;5.53;3.07;;;;;;;15.24;37.68;99254.44;4954991;28;20484;-74
2021/03/12 11:12:55;;;;;;;8.60;3.60;;;;;;;13.97;39.03;99250.44;4957163;28;20553;-75
2021/03/12 11:15:22;;;;;;;10.10;3.80;;;;;;;12.16;42.49;99262.72;4916805;29;20474;-76
2021/03/12 11:17:50;;;;;;;8.30;2.83;;;;;;;12.71;42.08;99242.13;4917422;29;20490;-75
2021/03/12 11:20:19;;;;;;;6.60;2.90;;;;;;;12.16;42.14;99252.00;4920512;29;20534;-73
2021/03/12 11:22:46;;;;;;;5.07;3.30;;;;;;;11.71;43.22;99250.00;4920559;29;20446;-73
2021/03/12 11:25:15;;;;;;;10.20;4.37;;;;;;;12.63;41.09;99251.03;4944441;28;20469;-74
2021/03/12 11:27:43;;;;;;;14.87;3.57;;;;;;;13.39;39.63;99242.22;4958482;28;20947;-75
2021/03/12 11:30:11;;;;;;;6.10;3.13;;;;;;;13.78;38.54;99242.97;4961809;28;21001;-75
2021/03/12 11:32:39;;;;;;;9.47;3.33;;;;;;;12.29;39.73;99235.38;4940716;28;20513;-74
2021/03/12 11:35:08;;;;;;;9.87;3.60;;;;;;;11.95;41.89;99235.72;4946537;28;20444;-74
2021/03/12 11:37:34;;;;;;;7.57;3.00;;;;;;;12.13;41.65;99238.13;4995885;28;20456;-73
2021/03/12 11:40:01;;;;;;;9.30;2.80;;;;;;;12.63;41.06;99226.09;4995330;28;20471;-74
2021/03/12 11:42:28;;;;;;;7.67;3.60;;;;;;;13.91;38.70;99235.91;4995944;28;20522;-74